sensor_id;sensor_type;location;lat;lon;timestamp;P1;durP1;ratioP1;P2;durP2;ratioP2
17345;SDS011;8790;53.590;10.002;2023-03-11T00:01:57;13.03;;;9.93;;
17345;SDS011;8790;53.590;10.002;2023-03-11T00:04:30;10.80;;;8.97;;
17345;SDS011;8790;53.590;10.002;2023-03-11T00:07:04;13.87;;;10.10;;
17345;SDS011;8790;53.590;10.002;2023-03-11T00:09:36;15.07;;;10.53;;
17345;SDS011;8790;53.590;10.002;2023-03-11T00:12:08;11.53;;;9.57;;
17345;SDS011;8790;53.590;10.002;2023-03-11T00:14:40;13.87;;;10.43;;
17345;SDS011;8790;53.590;10.002;2023-03-11T00:17:12;13.17;;;10.13;;
17345;SDS011;8790;53.590;10.002;2023-03-11T00:19:45;14.00;;;10.27;;
17345;SDS011;8790;53.590;10.002;2023-03-11T00:22:16;15.40;;;11.10;;
17345;SDS011;8790;53.590;10.002;2023-03-11T00:24:48;12.23;;;9.90;;
17345;SDS011;8790;53.590;10.002;2023-03-11T00:27:20;13.43;;;10.63;;
17345;SDS011;8790;53.590;10.002;2023-03-11T00:29:51;14.90;;;11.27;;
17345;SDS011;8790;53.590;10.002;2023-03-11T00:32:23;13.63;;;10.80;;
17345;SDS011;8790;53.590;10.002;2023-03-11T00:34:56;16.97;;;11.97;;
17345;SDS011;8790;53.590;10.002;2023-03-11T00:37:28;14.77;;;11.37;;
17345;SDS011;8790;53.590;10.002;2023-03-11T00:40:01;14.67;;;11.07;;
17345;SDS011;8790;53.590;10.002;2023-03-11T00:42:38;15.60;;;11.60;;
17345;SDS011;8790;53.590;10.002;2023-03-11T00:45:10;16.90;;;11.97;;
17345;SDS011;8790;53.590;10.002;2023-03-11T00:47:42;15.30;;;11.70;;
17345;SDS011;8790;53.590;10.002;2023-03-11T00:50:17;14.23;;;11.10;;
17345;SDS011;8790;53.590;10.002;2023-03-11T00:52:51;16.47;;;11.97;;
17345;SDS011;8790;53.590;10.002;2023-03-11T00:55:23;15.70;;;11.87;;
17345;SDS011;8790;53.590;10.002;2023-03-11T00:57:57;16.10;;;11.57;;
17345;SDS011;8790;53.590;10.002;2023-03-11T01:00:36;18.40;;;11.70;;
17345;SDS011;8790;53.590;10.002;2023-03-11T01:03:08;15.73;;;11.77;;
17345;SDS011;8790;53.590;10.002;2023-03-11T01:05:41;15.30;;;11.53;;
17345;SDS011;8790;53.590;10.002;2023-03-11T01:08:13;15.30;;;11.60;;
17345;SDS011;8790;53.590;10.002;2023-03-11T01:10:45;15.17;;;11.93;;
17345;SDS011;8790;53.590;10.002;2023-03-11T01:13:17;15.20;;;11.93;;
17345;SDS011;8790;53.590;10.002;2023-03-11T01:15:48;15.63;;;12.00;;
17345;SDS011;8790;53.590;10.002;2023-03-11T01:18:20;16.77;;;12.77;;
17345;SDS011;8790;53.590;10.002;2023-03-11T01:20:53;17.43;;;11.93;;
17345;SDS011;8790;53.590;10.002;2023-03-11T01:23:25;15.73;;;11.80;;
17345;SDS011;8790;53.590;10.002;2023-03-11T01:25:57;13.77;;;11.57;;
17345;SDS011;8790;53.590;10.002;2023-03-11T01:28:30;16.20;;;11.37;;
17345;SDS011;8790;53.590;10.002;2023-03-11T01:31:02;15.57;;;11.50;;
17345;SDS011;8790;53.590;10.002;2023-03-11T01:33:34;15.00;;;11.53;;
17345;SDS011;8790;53.590;10.002;2023-03-11T01:36:07;15.20;;;11.63;;
17345;SDS011;8790;53.590;10.002;2023-03-11T01:38:39;14.77;;;11.63;;
17345;SDS011;8790;53.590;10.002;2023-03-11T01:41:11;15.27;;;11.27;;
17345;SDS011;8790;53.590;10.002;2023-03-11T01:43:48;15.37;;;11.57;;
17345;SDS011;8790;53.590;10.002;2023-03-11T01:46:35;16.70;;;11.70;;
17345;SDS011;8790;53.590;10.002;2023-03-11T01:49:35;13.93;;;11.17;;
17345;SDS011;8790;53.590;10.002;2023-03-11T01:52:12;15.17;;;10.87;;
17345;SDS011;8790;53.590;10.002;2023-03-11T01:54:50;15.60;;;11.37;;
17345;SDS011;8790;53.590;10.002;2023-03-11T01:57:22;13.23;;;10.00;;
17345;SDS011;8790;53.590;10.002;2023-03-11T01:59:55;15.47;;;11.03;;
17345;SDS011;8790;53.590;10.002;2023-03-11T02:02:31;14.33;;;10.80;;
17345;SDS011;8790;53.590;10.002;2023-03-11T02:05:06;15.80;;;11.03;;
17345;SDS011;8790;53.590;10.002;2023-03-11T02:07:39;14.70;;;10.77;;
17345;SDS011;8790;53.590;10.002;2023-03-11T02:10:14;13.30;;;10.30;;
17345;SDS011;8790;53.590;10.002;2023-03-11T02:12:47;15.47;;;11.27;;
17345;SDS011;8790;53.590;10.002;2023-03-11T02:15:26;13.47;;;10.93;;
17345;SDS011;8790;53.590;10.002;2023-03-11T02:18:01;13.80;;;11.03;;
17345;SDS011;8790;53.590;10.002;2023-03-11T02:20:38;13.73;;;10.30;;
17345;SDS011;8790;53.590;10.002;2023-03-11T02:23:18;14.23;;;11.13;;
17345;SDS011;8790;53.590;10.002;2023-03-11T02:25:55;14.30;;;10.50;;
17345;SDS011;8790;53.590;10.002;2023-03-11T02:28:35;14.60;;;10.20;;
17345;SDS011;8790;53.590;10.002;2023-03-11T02:31:08;13.47;;;10.80;;
17345;SDS011;8790;53.590;10.002;2023-03-11T02:33:41;13.50;;;10.53;;
17345;SDS011;8790;53.590;10.002;2023-03-11T02:36:34;13.87;;;10.73;;
17345;SDS011;8790;53.590;10.002;2023-03-11T02:39:08;15.47;;;10.73;;
17345;SDS011;8790;53.590;10.002;2023-03-11T02:41:43;14.57;;;11.00;;
17345;SDS011;8790;53.590;10.002;2023-03-11T02:44:18;14.73;;;10.47;;
17345;SDS011;8790;53.590;10.002;2023-03-11T02:46:50;15.37;;;10.80;;
17345;SDS011;8790;53.590;10.002;2023-03-11T02:49:23;12.97;;;9.97;;
17345;SDS011;8790;53.590;10.002;2023-03-11T02:51:55;13.83;;;10.80;;
17345;SDS011;8790;53.590;10.002;2023-03-11T02:54:26;13.33;;;10.27;;
17345;SDS011;8790;53.590;10.002;2023-03-11T02:56:58;13.13;;;9.90;;
17345;SDS011;8790;53.590;10.002;2023-03-11T02:59:32;13.93;;;10.27;;
17345;SDS011;8790;53.590;10.002;2023-03-11T03:02:05;12.57;;;9.90;;
17345;SDS011;8790;53.590;10.002;2023-03-11T03:04:37;12.53;;;9.63;;
17345;SDS011;8790;53.590;10.002;2023-03-11T03:07:10;12.83;;;10.17;;
17345;SDS011;8790;53.590;10.002;2023-03-11T03:09:41;13.90;;;10.40;;
17345;SDS011;8790;53.590;10.002;2023-03-11T03:12:13;12.80;;;9.17;;
17345;SDS011;8790;53.590;10.002;2023-03-11T03:14:46;14.07;;;9.90;;
17345;SDS011;8790;53.590;10.002;2023-03-11T03:17:20;13.67;;;9.50;;
17345;SDS011;8790;53.590;10.002;2023-03-11T03:19:51;11.97;;;9.57;;
17345;SDS011;8790;53.590;10.002;2023-03-11T03:22:23;13.70;;;10.00;;
17345;SDS011;8790;53.590;10.002;2023-03-11T03:24:58;11.17;;;8.87;;
17345;SDS011;8790;53.590;10.002;2023-03-11T03:27:30;13.13;;;9.33;;
17345;SDS011;8790;53.590;10.002;2023-03-11T03:30:07;11.07;;;8.27;;
17345;SDS011;8790;53.590;10.002;2023-03-11T03:32:41;11.07;;;8.57;;
17345;SDS011;8790;53.590;10.002;2023-03-11T03:35:16;10.97;;;8.80;;
17345;SDS011;8790;53.590;10.002;2023-03-11T03:38:06;11.47;;;8.63;;
17345;SDS011;8790;53.590;10.002;2023-03-11T03:40:37;13.10;;;8.67;;
17345;SDS011;8790;53.590;10.002;2023-03-11T03:43:11;11.37;;;8.57;;
17345;SDS011;8790;53.590;10.002;2023-03-11T03:45:52;11.97;;;8.93;;
17345;SDS011;8790;53.590;10.002;2023-03-11T03:48:26;13.13;;;9.53;;
17345;SDS011;8790;53.590;10.002;2023-03-11T03:51:01;12.30;;;9.00;;
17345;SDS011;8790;53.590;10.002;2023-03-11T03:53:34;12.27;;;9.30;;
17345;SDS011;8790;53.590;10.002;2023-03-11T03:56:07;13.30;;;9.10;;
17345;SDS011;8790;53.590;10.002;2023-03-11T03:58:41;13.03;;;9.37;;
17345;SDS011;8790;53.590;10.002;2023-03-11T04:01:15;10.50;;;8.60;;
17345;SDS011;8790;53.590;10.002;2023-03-11T04:03:47;12.33;;;9.03;;
17345;SDS011;8790;53.590;10.002;2023-03-11T04:06:20;11.50;;;8.90;;
17345;SDS011;8790;53.590;10.002;2023-03-11T04:08:58;12.20;;;9.13;;
17345;SDS011;8790;53.590;10.002;2023-03-11T04:11:34;12.97;;;9.87;;
17345;SDS011;8790;53.590;10.002;2023-03-11T04:14:07;12.80;;;9.00;;
17345;SDS011;8790;53.590;10.002;2023-03-11T04:16:46;11.93;;;9.27;;
17345;SDS011;8790;53.590;10.002;2023-03-11T04:19:19;11.77;;;9.10;;
17345;SDS011;8790;53.590;10.002;2023-03-11T04:21:51;12.60;;;9.20;;
17345;SDS011;8790;53.590;10.002;2023-03-11T04:24:24;12.40;;;9.30;;
17345;SDS011;8790;53.590;10.002;2023-03-11T04:26:57;11.43;;;8.90;;
17345;SDS011;8790;53.590;10.002;2023-03-11T04:29:29;12.33;;;9.30;;
17345;SDS011;8790;53.590;10.002;2023-03-11T04:32:02;11.53;;;9.07;;
17345;SDS011;8790;53.590;10.002;2023-03-11T04:34:35;12.60;;;9.20;;
17345;SDS011;8790;53.590;10.002;2023-03-11T04:37:07;11.77;;;9.13;;
17345;SDS011;8790;53.590;10.002;2023-03-11T04:39:40;12.60;;;8.63;;
17345;SDS011;8790;53.590;10.002;2023-03-11T04:42:12;11.80;;;8.80;;
17345;SDS011;8790;53.590;10.002;2023-03-11T04:44:46;12.30;;;9.20;;
17345;SDS011;8790;53.590;10.002;2023-03-11T04:47:19;11.13;;;8.50;;
17345;SDS011;8790;53.590;10.002;2023-03-11T04:49:52;12.73;;;8.73;;
17345;SDS011;8790;53.590;10.002;2023-03-11T04:52:25;11.97;;;9.07;;
17345;SDS011;8790;53.590;10.002;2023-03-11T04:54:57;11.57;;;8.60;;
17345;SDS011;8790;53.590;10.002;2023-03-11T04:57:29;10.90;;;8.50;;
17345;SDS011;8790;53.590;10.002;2023-03-11T05:00:03;11.20;;;8.87;;
17345;SDS011;8790;53.590;10.002;2023-03-11T05:02:40;13.23;;;9.10;;
17345;SDS011;8790;53.590;10.002;2023-03-11T05:05:12;13.10;;;8.70;;
17345;SDS011;8790;53.590;10.002;2023-03-11T05:07:46;12.50;;;8.40;;
17345;SDS011;8790;53.590;10.002;2023-03-11T05:10:18;12.00;;;8.93;;
17345;SDS011;8790;53.590;10.002;2023-03-11T05:12:52;10.00;;;8.20;;
17345;SDS011;8790;53.590;10.002;2023-03-11T05:15:26;11.77;;;8.03;;
17345;SDS011;8790;53.590;10.002;2023-03-11T05:18:02;11.90;;;9.27;;
17345;SDS011;8790;53.590;10.002;2023-03-11T05:20:35;13.10;;;8.07;;
17345;SDS011;8790;53.590;10.002;2023-03-11T05:23:07;11.50;;;8.10;;
17345;SDS011;8790;53.590;10.002;2023-03-11T05:25:40;12.13;;;8.23;;
17345;SDS011;8790;53.590;10.002;2023-03-11T05:28:13;11.37;;;8.20;;
17345;SDS011;8790;53.590;10.002;2023-03-11T05:30:52;11.53;;;8.53;;
17345;SDS011;8790;53.590;10.002;2023-03-11T05:33:26;10.27;;;8.07;;
17345;SDS011;8790;53.590;10.002;2023-03-11T05:36:05;10.07;;;7.97;;
17345;SDS011;8790;53.590;10.002;2023-03-11T05:38:40;10.27;;;7.90;;
17345;SDS011;8790;53.590;10.002;2023-03-11T05:41:12;11.80;;;8.07;;
17345;SDS011;8790;53.590;10.002;2023-03-11T05:43:46;12.07;;;7.90;;
17345;SDS011;8790;53.590;10.002;2023-03-11T05:46:18;10.73;;;8.03;;
17345;SDS011;8790;53.590;10.002;2023-03-11T05:48:51;11.07;;;7.90;;
17345;SDS011;8790;53.590;10.002;2023-03-11T05:51:23;10.90;;;7.70;;
17345;SDS011;8790;53.590;10.002;2023-03-11T05:53:55;9.27;;;7.30;;
17345;SDS011;8790;53.590;10.002;2023-03-11T05:56:36;9.93;;;6.97;;
17345;SDS011;8790;53.590;10.002;2023-03-11T05:59:09;9.60;;;7.47;;
17345;SDS011;8790;53.590;10.002;2023-03-11T06:01:42;9.27;;;7.37;;
17345;SDS011;8790;53.590;10.002;2023-03-11T06:04:16;10.77;;;7.90;;
17345;SDS011;8790;53.590;10.002;2023-03-11T06:06:49;10.57;;;7.60;;
17345;SDS011;8790;53.590;10.002;2023-03-11T06:09:23;8.73;;;7.00;;
17345;SDS011;8790;53.590;10.002;2023-03-11T06:11:56;9.97;;;7.43;;
17345;SDS011;8790;53.590;10.002;2023-03-11T06:14:35;10.63;;;7.83;;
17345;SDS011;8790;53.590;10.002;2023-03-11T06:17:08;11.77;;;8.10;;
17345;SDS011;8790;53.590;10.002;2023-03-11T06:19:41;9.57;;;7.37;;
17345;SDS011;8790;53.590;10.002;2023-03-11T06:22:13;10.63;;;7.47;;
17345;SDS011;8790;53.590;10.002;2023-03-11T06:24:45;10.70;;;7.63;;
17345;SDS011;8790;53.590;10.002;2023-03-11T06:27:17;11.07;;;8.03;;
17345;SDS011;8790;53.590;10.002;2023-03-11T06:29:50;12.13;;;8.20;;
17345;SDS011;8790;53.590;10.002;2023-03-11T06:32:23;11.30;;;8.10;;
17345;SDS011;8790;53.590;10.002;2023-03-11T06:34:56;11.07;;;8.17;;
17345;SDS011;8790;53.590;10.002;2023-03-11T06:37:28;11.23;;;8.10;;
17345;SDS011;8790;53.590;10.002;2023-03-11T06:40:00;12.47;;;8.43;;
17345;SDS011;8790;53.590;10.002;2023-03-11T06:42:34;11.60;;;7.97;;
17345;SDS011;8790;53.590;10.002;2023-03-11T06:45:07;12.60;;;8.10;;
17345;SDS011;8790;53.590;10.002;2023-03-11T06:47:40;12.10;;;8.50;;
17345;SDS011;8790;53.590;10.002;2023-03-11T06:50:13;10.90;;;7.80;;
17345;SDS011;8790;53.590;10.002;2023-03-11T06:52:46;9.77;;;7.33;;
17345;SDS011;8790;53.590;10.002;2023-03-11T06:55:18;9.83;;;7.30;;
17345;SDS011;8790;53.590;10.002;2023-03-11T06:57:50;10.47;;;7.80;;
17345;SDS011;8790;53.590;10.002;2023-03-11T07:00:22;10.63;;;7.77;;
17345;SDS011;8790;53.590;10.002;2023-03-11T07:02:58;9.93;;;7.40;;
17345;SDS011;8790;53.590;10.002;2023-03-11T07:05:32;9.60;;;7.33;;
17345;SDS011;8790;53.590;10.002;2023-03-11T07:08:09;9.40;;;7.63;;
17345;SDS011;8790;53.590;10.002;2023-03-11T07:10:41;12.77;;;7.43;;
17345;SDS011;8790;53.590;10.002;2023-03-11T07:13:13;11.27;;;8.00;;
17345;SDS011;8790;53.590;10.002;2023-03-11T07:15:44;9.53;;;7.13;;
17345;SDS011;8790;53.590;10.002;2023-03-11T07:18:16;9.90;;;7.30;;
17345;SDS011;8790;53.590;10.002;2023-03-11T07:20:52;11.70;;;7.50;;
17345;SDS011;8790;53.590;10.002;2023-03-11T07:23:23;12.57;;;7.57;;
17345;SDS011;8790;53.590;10.002;2023-03-11T07:25:55;11.00;;;7.77;;
17345;SDS011;8790;53.590;10.002;2023-03-11T07:28:27;10.07;;;7.33;;
17345;SDS011;8790;53.590;10.002;2023-03-11T07:30:59;22.07;;;7.67;;
17345;SDS011;8790;53.590;10.002;2023-03-11T07:33:37;13.27;;;7.60;;
17345;SDS011;8790;53.590;10.002;2023-03-11T07:36:11;29.37;;;8.43;;
17345;SDS011;8790;53.590;10.002;2023-03-11T07:38:44;9.53;;;7.07;;
17345;SDS011;8790;53.590;10.002;2023-03-11T07:41:16;10.07;;;7.20;;
17345;SDS011;8790;53.590;10.002;2023-03-11T07:43:48;9.57;;;6.70;;
17345;SDS011;8790;53.590;10.002;2023-03-11T07:46:20;9.87;;;6.90;;
17345;SDS011;8790;53.590;10.002;2023-03-11T07:48:54;9.63;;;7.10;;
17345;SDS011;8790;53.590;10.002;2023-03-11T07:51:28;10.43;;;6.87;;
17345;SDS011;8790;53.590;10.002;2023-03-11T07:54:01;9.13;;;6.70;;
17345;SDS011;8790;53.590;10.002;2023-03-11T07:56:34;10.03;;;6.53;;
17345;SDS011;8790;53.590;10.002;2023-03-11T07:59:06;9.17;;;6.60;;
17345;SDS011;8790;53.590;10.002;2023-03-11T08:01:37;9.63;;;6.73;;
17345;SDS011;8790;53.590;10.002;2023-03-11T08:04:16;10.17;;;6.80;;
17345;SDS011;8790;53.590;10.002;2023-03-11T08:06:49;9.17;;;6.67;;
17345;SDS011;8790;53.590;10.002;2023-03-11T08:09:20;10.60;;;6.60;;
17345;SDS011;8790;53.590;10.002;2023-03-11T08:11:52;10.00;;;7.20;;
17345;SDS011;8790;53.590;10.002;2023-03-11T08:14:24;10.03;;;7.43;;
17345;SDS011;8790;53.590;10.002;2023-03-11T08:16:56;9.13;;;6.03;;
17345;SDS011;8790;53.590;10.002;2023-03-11T08:19:28;8.57;;;6.23;;
17345;SDS011;8790;53.590;10.002;2023-03-11T08:22:01;9.77;;;6.37;;
17345;SDS011;8790;53.590;10.002;2023-03-11T08:24:33;8.83;;;5.60;;
17345;SDS011;8790;53.590;10.002;2023-03-11T08:27:05;8.53;;;6.10;;
17345;SDS011;8790;53.590;10.002;2023-03-11T08:29:38;7.30;;;5.90;;
17345;SDS011;8790;53.590;10.002;2023-03-11T08:32:10;7.57;;;5.90;;
17345;SDS011;8790;53.590;10.002;2023-03-11T08:34:42;9.70;;;6.30;;
17345;SDS011;8790;53.590;10.002;2023-03-11T08:37:15;9.40;;;5.73;;
17345;SDS011;8790;53.590;10.002;2023-03-11T08:39:47;8.43;;;5.27;;
17345;SDS011;8790;53.590;10.002;2023-03-11T08:42:18;7.80;;;5.30;;
17345;SDS011;8790;53.590;10.002;2023-03-11T08:44:50;7.30;;;5.30;;
17345;SDS011;8790;53.590;10.002;2023-03-11T08:47:22;7.87;;;5.30;;
17345;SDS011;8790;53.590;10.002;2023-03-11T08:49:54;7.43;;;4.97;;
17345;SDS011;8790;53.590;10.002;2023-03-11T08:52:27;6.87;;;5.33;;
17345;SDS011;8790;53.590;10.002;2023-03-11T08:54:58;7.43;;;5.20;;
17345;SDS011;8790;53.590;10.002;2023-03-11T08:57:31;6.87;;;5.20;;
17345;SDS011;8790;53.590;10.002;2023-03-11T09:00:03;8.30;;;5.20;;
17345;SDS011;8790;53.590;10.002;2023-03-11T09:02:36;7.23;;;4.70;;
17345;SDS011;8790;53.590;10.002;2023-03-11T09:05:08;7.57;;;4.63;;
17345;SDS011;8790;53.590;10.002;2023-03-11T09:07:41;6.50;;;4.30;;
17345;SDS011;8790;53.590;10.002;2023-03-11T09:10:14;6.67;;;4.53;;
17345;SDS011;8790;53.590;10.002;2023-03-11T09:12:46;5.37;;;4.17;;
17345;SDS011;8790;53.590;10.002;2023-03-11T09:15:18;6.30;;;4.33;;
17345;SDS011;8790;53.590;10.002;2023-03-11T09:17:49;6.47;;;4.20;;
17345;SDS011;8790;53.590;10.002;2023-03-11T09:20:22;6.67;;;4.17;;
17345;SDS011;8790;53.590;10.002;2023-03-11T09:22:55;6.13;;;4.03;;
17345;SDS011;8790;53.590;10.002;2023-03-11T09:25:27;6.03;;;4.07;;
17345;SDS011;8790;53.590;10.002;2023-03-11T09:27:59;7.20;;;4.47;;
17345;SDS011;8790;53.590;10.002;2023-03-11T09:30:31;8.67;;;4.60;;
17345;SDS011;8790;53.590;10.002;2023-03-11T09:33:03;11.00;;;6.33;;
17345;SDS011;8790;53.590;10.002;2023-03-11T09:35:36;5.93;;;4.20;;
17345;SDS011;8790;53.590;10.002;2023-03-11T09:38:10;8.43;;;4.20;;
17345;SDS011;8790;53.590;10.002;2023-03-11T09:40:48;5.90;;;3.67;;
17345;SDS011;8790;53.590;10.002;2023-03-11T09:43:34;4.60;;;3.33;;
17345;SDS011;8790;53.590;10.002;2023-03-11T09:46:26;5.13;;;3.20;;
17345;SDS011;8790;53.590;10.002;2023-03-11T09:49:12;5.50;;;2.83;;
17345;SDS011;8790;53.590;10.002;2023-03-11T09:51:54;4.93;;;2.90;;
17345;SDS011;8790;53.590;10.002;2023-03-11T09:54:34;4.30;;;3.03;;
17345;SDS011;8790;53.590;10.002;2023-03-11T09:57:10;3.33;;;2.30;;
17345;SDS011;8790;53.590;10.002;2023-03-11T09:59:45;4.03;;;2.23;;
17345;SDS011;8790;53.590;10.002;2023-03-11T10:02:19;4.07;;;2.60;;
17345;SDS011;8790;53.590;10.002;2023-03-11T10:04:56;5.10;;;2.23;;
17345;SDS011;8790;53.590;10.002;2023-03-11T10:07:32;3.73;;;2.20;;
17345;SDS011;8790;53.590;10.002;2023-03-11T10:10:11;6.63;;;2.70;;
17345;SDS011;8790;53.590;10.002;2023-03-11T10:12:47;6.97;;;4.20;;
17345;SDS011;8790;53.590;10.002;2023-03-11T10:15:28;6.40;;;3.57;;
17345;SDS011;8790;53.590;10.002;2023-03-11T10:18:24;9.80;;;4.30;;
17345;SDS011;8790;53.590;10.002;2023-03-11T10:21:18;5.17;;;2.70;;
17345;SDS011;8790;53.590;10.002;2023-03-11T10:24:00;8.83;;;4.97;;
17345;SDS011;8790;53.590;10.002;2023-03-11T10:26:44;8.87;;;6.00;;
17345;SDS011;8790;53.590;10.002;2023-03-11T10:29:20;4.60;;;3.30;;
17345;SDS011;8790;53.590;10.002;2023-03-11T10:31:58;6.00;;;3.00;;
17345;SDS011;8790;53.590;10.002;2023-03-11T10:34:33;4.00;;;2.33;;
17345;SDS011;8790;53.590;10.002;2023-03-11T10:37:09;4.03;;;2.50;;
17345;SDS011;8790;53.590;10.002;2023-03-11T10:39:45;4.07;;;2.20;;
17345;SDS011;8790;53.590;10.002;2023-03-11T10:42:20;3.37;;;2.20;;
17345;SDS011;8790;53.590;10.002;2023-03-11T10:44:54;3.83;;;2.47;;
17345;SDS011;8790;53.590;10.002;2023-03-11T10:47:27;3.90;;;2.60;;
17345;SDS011;8790;53.590;10.002;2023-03-11T10:49:59;3.80;;;2.47;;
17345;SDS011;8790;53.590;10.002;2023-03-11T10:52:31;3.97;;;2.57;;
17345;SDS011;8790;53.590;10.002;2023-03-11T10:55:14;5.60;;;2.70;;
17345;SDS011;8790;53.590;10.002;2023-03-11T10:57:50;3.90;;;2.40;;
17345;SDS011;8790;53.590;10.002;2023-03-11T11:00:34;5.33;;;2.70;;
17345;SDS011;8790;53.590;10.002;2023-03-11T11:03:10;5.10;;;3.37;;
17345;SDS011;8790;53.590;10.002;2023-03-11T11:05:55;9.23;;;4.83;;
17345;SDS011;8790;53.590;10.002;2023-03-11T11:08:29;4.83;;;3.43;;
17345;SDS011;8790;53.590;10.002;2023-03-11T11:11:02;4.57;;;2.97;;
17345;SDS011;8790;53.590;10.002;2023-03-11T11:13:36;5.20;;;2.80;;
17345;SDS011;8790;53.590;10.002;2023-03-11T11:16:16;5.10;;;2.60;;
17345;SDS011;8790;53.590;10.002;2023-03-11T11:18:52;5.33;;;2.60;;
17345;SDS011;8790;53.590;10.002;2023-03-11T11:21:30;3.77;;;2.90;;
17345;SDS011;8790;53.590;10.002;2023-03-11T11:24:07;4.67;;;2.80;;
17345;SDS011;8790;53.590;10.002;2023-03-11T11:29:36;5.83;;;2.73;;
17345;SDS011;8790;53.590;10.002;2023-03-11T11:32:09;4.60;;;2.50;;
17345;SDS011;8790;53.590;10.002;2023-03-11T11:34:56;4.83;;;2.73;;
17345;SDS011;8790;53.590;10.002;2023-03-11T11:37:30;8.17;;;2.80;;
17345;SDS011;8790;53.590;10.002;2023-03-11T11:40:16;5.20;;;2.67;;
17345;SDS011;8790;53.590;10.002;2023-03-11T11:42:55;5.50;;;2.33;;
17345;SDS011;8790;53.590;10.002;2023-03-11T11:45:31;5.93;;;2.37;;
17345;SDS011;8790;53.590;10.002;2023-03-11T11:48:11;5.40;;;2.23;;
17345;SDS011;8790;53.590;10.002;2023-03-11T11:50:47;5.87;;;2.00;;
17345;SDS011;8790;53.590;10.002;2023-03-11T11:53:24;5.47;;;2.33;;
17345;SDS011;8790;53.590;10.002;2023-03-11T11:56:02;5.77;;;2.00;;
17345;SDS011;8790;53.590;10.002;2023-03-11T11:58:34;4.57;;;2.33;;
17345;SDS011;8790;53.590;10.002;2023-03-11T12:01:13;4.70;;;1.67;;
17345;SDS011;8790;53.590;10.002;2023-03-11T12:03:51;5.97;;;1.90;;
17345;SDS011;8790;53.590;10.002;2023-03-11T12:06:37;4.23;;;1.50;;
17345;SDS011;8790;53.590;10.002;2023-03-11T12:09:17;4.50;;;1.30;;
17345;SDS011;8790;53.590;10.002;2023-03-11T12:11:57;3.77;;;1.33;;
17345;SDS011;8790;53.590;10.002;2023-03-11T12:14:38;3.20;;;1.10;;
17345;SDS011;8790;53.590;10.002;2023-03-11T12:17:17;4.57;;;1.50;;
17345;SDS011;8790;53.590;10.002;2023-03-11T12:19:53;3.40;;;1.30;;
17345;SDS011;8790;53.590;10.002;2023-03-11T12:22:46;3.33;;;1.20;;
17345;SDS011;8790;53.590;10.002;2023-03-11T12:25:51;4.47;;;1.30;;
17345;SDS011;8790;53.590;10.002;2023-03-11T12:28:37;1.73;;;1.10;;
17345;SDS011;8790;53.590;10.002;2023-03-11T12:31:12;2.57;;;1.00;;
17345;SDS011;8790;53.590;10.002;2023-03-11T12:33:46;3.77;;;1.97;;
17345;SDS011;8790;53.590;10.002;2023-03-11T12:36:21;2.50;;;1.30;;
17345;SDS011;8790;53.590;10.002;2023-03-11T12:38:55;3.33;;;1.03;;
17345;SDS011;8790;53.590;10.002;2023-03-11T12:41:29;3.77;;;1.00;;
17345;SDS011;8790;53.590;10.002;2023-03-11T12:44:20;2.07;;;0.93;;
17345;SDS011;8790;53.590;10.002;2023-03-11T12:47:01;2.77;;;0.80;;
17345;SDS011;8790;53.590;10.002;2023-03-11T12:49:48;2.47;;;0.90;;
17345;SDS011;8790;53.590;10.002;2023-03-11T12:52:24;4.00;;;0.90;;
17345;SDS011;8790;53.590;10.002;2023-03-11T13:01:32;4.57;;;0.80;;
17345;SDS011;8790;53.590;10.002;2023-03-11T13:04:24;4.13;;;1.03;;
17345;SDS011;8790;53.590;10.002;2023-03-11T13:10:12;4.00;;;1.17;;
17345;SDS011;8790;53.590;10.002;2023-03-11T13:13:22;2.50;;;0.80;;
17345;SDS011;8790;53.590;10.002;2023-03-11T13:22:08;3.30;;;1.00;;
17345;SDS011;8790;53.590;10.002;2023-03-11T13:28:20;2.13;;;0.90;;
17345;SDS011;8790;53.590;10.002;2023-03-11T13:31:13;1.60;;;0.87;;
17345;SDS011;8790;53.590;10.002;2023-03-11T13:33:54;2.40;;;0.83;;
17345;SDS011;8790;53.590;10.002;2023-03-11T13:36:44;2.67;;;1.10;;
17345;SDS011;8790;53.590;10.002;2023-03-11T13:39:38;3.63;;;0.90;;
17345;SDS011;8790;53.590;10.002;2023-03-11T13:42:23;2.53;;;0.90;;
17345;SDS011;8790;53.590;10.002;2023-03-11T13:44:58;3.07;;;1.00;;
17345;SDS011;8790;53.590;10.002;2023-03-11T13:47:30;2.63;;;1.10;;
17345;SDS011;8790;53.590;10.002;2023-03-11T13:50:04;3.10;;;1.13;;
17345;SDS011;8790;53.590;10.002;2023-03-11T13:52:41;3.13;;;1.27;;
17345;SDS011;8790;53.590;10.002;2023-03-11T13:55:18;1.73;;;1.00;;
17345;SDS011;8790;53.590;10.002;2023-03-11T13:57:53;3.33;;;1.00;;
17345;SDS011;8790;53.590;10.002;2023-03-11T14:00:26;4.00;;;1.00;;
17345;SDS011;8790;53.590;10.002;2023-03-11T14:03:00;6.93;;;2.97;;
17345;SDS011;8790;53.590;10.002;2023-03-11T14:05:35;2.90;;;1.20;;
17345;SDS011;8790;53.590;10.002;2023-03-11T14:08:10;2.53;;;0.90;;
17345;SDS011;8790;53.590;10.002;2023-03-11T14:10:50;4.00;;;1.10;;
17345;SDS011;8790;53.590;10.002;2023-03-11T14:13:25;3.73;;;1.00;;
17345;SDS011;8790;53.590;10.002;2023-03-11T14:16:00;4.10;;;0.80;;
17345;SDS011;8790;53.590;10.002;2023-03-11T14:18:36;2.33;;;0.80;;
17345;SDS011;8790;53.590;10.002;2023-03-11T14:21:11;2.07;;;0.77;;
17345;SDS011;8790;53.590;10.002;2023-03-11T14:23:45;3.20;;;0.97;;
17345;SDS011;8790;53.590;10.002;2023-03-11T14:26:19;2.53;;;0.80;;
17345;SDS011;8790;53.590;10.002;2023-03-11T14:28:54;3.87;;;0.90;;
17345;SDS011;8790;53.590;10.002;2023-03-11T14:31:29;1.77;;;0.70;;
17345;SDS011;8790;53.590;10.002;2023-03-11T14:34:02;1.60;;;0.80;;
17345;SDS011;8790;53.590;10.002;2023-03-11T14:36:39;1.50;;;0.90;;
17345;SDS011;8790;53.590;10.002;2023-03-11T14:39:22;2.87;;;0.90;;
17345;SDS011;8790;53.590;10.002;2023-03-11T14:42:01;1.87;;;0.77;;
17345;SDS011;8790;53.590;10.002;2023-03-11T14:44:39;2.33;;;0.90;;
17345;SDS011;8790;53.590;10.002;2023-03-11T14:47:13;1.97;;;0.77;;
17345;SDS011;8790;53.590;10.002;2023-03-11T14:49:49;2.07;;;0.77;;
17345;SDS011;8790;53.590;10.002;2023-03-11T14:52:24;2.13;;;0.90;;
17345;SDS011;8790;53.590;10.002;2023-03-11T14:55:03;2.27;;;0.90;;
17345;SDS011;8790;53.590;10.002;2023-03-11T14:57:43;4.30;;;1.03;;
17345;SDS011;8790;53.590;10.002;2023-03-11T15:00:20;3.27;;;1.13;;
17345;SDS011;8790;53.590;10.002;2023-03-11T15:03:01;2.33;;;0.90;;
17345;SDS011;8790;53.590;10.002;2023-03-11T15:05:43;7.70;;;1.00;;
17345;SDS011;8790;53.590;10.002;2023-03-11T15:08:19;3.47;;;1.30;;
17345;SDS011;8790;53.590;10.002;2023-03-11T15:11:04;2.80;;;1.27;;
17345;SDS011;8790;53.590;10.002;2023-03-11T15:13:38;2.03;;;0.90;;
17345;SDS011;8790;53.590;10.002;2023-03-11T15:16:21;1.57;;;0.97;;
17345;SDS011;8790;53.590;10.002;2023-03-11T15:18:55;3.03;;;1.10;;
17345;SDS011;8790;53.590;10.002;2023-03-11T15:21:29;2.17;;;0.90;;
17345;SDS011;8790;53.590;10.002;2023-03-11T15:24:01;2.77;;;1.10;;
17345;SDS011;8790;53.590;10.002;2023-03-11T15:26:36;3.33;;;1.23;;
17345;SDS011;8790;53.590;10.002;2023-03-11T15:29:12;3.93;;;1.20;;
17345;SDS011;8790;53.590;10.002;2023-03-11T15:31:47;4.40;;;1.10;;
17345;SDS011;8790;53.590;10.002;2023-03-11T15:34:24;7.23;;;1.30;;
17345;SDS011;8790;53.590;10.002;2023-03-11T15:37:04;2.97;;;1.00;;
17345;SDS011;8790;53.590;10.002;2023-03-11T15:39:48;4.37;;;1.13;;
17345;SDS011;8790;53.590;10.002;2023-03-11T15:42:22;2.60;;;1.07;;
17345;SDS011;8790;53.590;10.002;2023-03-11T15:44:59;3.90;;;1.30;;
17345;SDS011;8790;53.590;10.002;2023-03-11T15:47:42;5.17;;;1.23;;
17345;SDS011;8790;53.590;10.002;2023-03-11T15:50:18;2.73;;;1.20;;